MiSS Sarah — WDE9595 — position and weather

sailwx.info

Track history (hours):
 
Tides and Currents Weather Stations Pressure Air Temp Water Temp Dewpoint Dewpoint Depression Visibility Wind Speed Wind Dir Waves Ship Positions

MiSS Sarah

Owner: Higman Barge Lines, Inc, Orange, TX. More information available from US FCC via Universal Licensing System and Coast Guard Vessel Documentation Center.

Last reported at 2016-Aug-17 00:21 UTC. Time now 2016-Aug-30 18:54 UTC.
Position N 29°44' W 095°09'.
Warning: this ship's position is 13 days out of date.

Date/timePositionNaut miles runAvg speedWind from/ knotsBaromVisibWave heightAir tempDewpointWater temp
2016-Aug-17 00:21N 29°44' W 095°09'2 0.9
2016-Aug-16 22:33N 29°45' W 095°11'4 3.7
2016-Aug-16 21:33N 29°45' W 095°06'1 0.9
2016-Aug-16 20:32N 29°46' W 095°06'1 0.8
2016-Aug-16 19:32N 29°46' W 095°05'1 0.6
2016-Aug-16 18:30N 29°45' W 095°06'1 0.3
2016-Aug-16 16:33N 29°46' W 095°05'0 0.0
2016-Aug-16 15:21N 29°46' W 095°05'0 0.0
2016-Aug-16 14:33N 29°46' W 095°05'1 0.1
2016-Aug-16 01:23N 29°45' W 095°06'1 0.1
2016-Aug-15 20:32N 29°45' W 095°07'0 0.0
2016-Aug-15 19:32N 29°45' W 095°07'1 0.0
2016-Aug-14 15:16N 29°46' W 095°06'2 1.3
2016-Aug-14 13:24N 29°44' W 095°08'2 0.1
2016-Aug-13 19:32N 29°45' W 095°06'0 0.0
2016-Aug-13 04:33N 29°45' W 095°07'0 0.0
2016-Aug-13 03:33N 29°45' W 095°07'0 0.0
2016-Aug-13 02:34N 29°45' W 095°07'0 0.0
2016-Aug-13 01:33N 29°45' W 095°07'0 0.0
2016-Aug-13 00:33N 29°45' W 095°07'0 0.0
2016-Aug-12 23:33N 29°45' W 095°07'0 0.0
2016-Aug-12 22:33N 29°45' W 095°07'0 0.0
2016-Aug-12 21:33N 29°45' W 095°07'0 0.0
2016-Aug-12 20:33N 29°45' W 095°07'0 0.4
2016-Aug-12 19:33N 29°45' W 095°06'1 0.2
2016-Aug-12 14:06N 29°46' W 095°07'0 0.0
2016-Aug-12 10:10N 29°46' W 095°07'0 0.0
2016-Aug-12 09:33N 29°46' W 095°07'  
2016-Aug-08 19:33N 29°31' W 094°53'31 4.2
2016-Aug-08 12:13N 29°38' W 094°18'30 5.4
2016-Aug-08 06:33N 29°57' W 093°52'6 5.7
2016-Aug-08 05:33N 30°00' W 093°46'5 5.4
2016-Aug-08 04:33N 30°04' W 093°41'5 5.3
2016-Aug-08 03:33N 30°04' W 093°35'5 4.9
2016-Aug-08 02:33N 30°04' W 093°29'5 4.9
2016-Aug-08 01:33N 30°04' W 093°24'4 3.5
2016-Aug-08 00:33N 30°05' W 093°20'2 2.4
2016-Aug-07 23:33N 30°05' W 093°17'5 4.6
2016-Aug-07 22:33N 30°01' W 093°14'4 4.3
2016-Aug-07 21:33N 29°58' W 093°11'4 4.3
2016-Aug-07 20:33N 29°56' W 093°07'5 4.6
2016-Aug-07 19:34N 29°56' W 093°01'26 4.7
2016-Aug-07 14:09N 29°54' W 092°32'3 4.4
2016-Aug-07 13:24N 29°54' W 092°28'4 4.7
2016-Aug-07 12:33N 29°53' W 092°23'4 4.2
2016-Aug-07 11:33N 29°50' W 092°20'4 4.3
2016-Aug-07 10:33N 29°48' W 092°15'4 4.1
2016-Aug-07 09:33N 29°47' W 092°11'5 4.7
2016-Aug-07 08:33N 29°48' W 092°06'5 4.9
2016-Aug-07 07:34N 29°50' W 092°01'5 5.0
2016-Aug-07 06:33N 29°51' W 091°55'  
Track history (hours):
 
Tides and Currents Weather Stations Pressure Air Temp Water Temp Dewpoint Dewpoint Depression Visibility Wind Speed Wind Dir Waves Ship Positions

MiSS Sarah

Owner: Higman Barge Lines, Inc, Orange, TX. More information available from US FCC via Universal Licensing System and Coast Guard Vessel Documentation Center.

Last reported at 2016-Aug-17 00:21 UTC. Time now 2016-Aug-30 18:54 UTC.
Position N 29°44' W 095°09'.
Warning: this ship's position is 13 days out of date.

Date/timePositionNaut miles runAvg speedWind from/ knotsBaromVisibWave heightAir tempDewpointWater temp
2016-Aug-17 00:21N 29°44' W 095°09'2 0.9
2016-Aug-16 22:33N 29°45' W 095°11'4 3.7
2016-Aug-16 21:33N 29°45' W 095°06'1 0.9
2016-Aug-16 20:32N 29°46' W 095°06'1 0.8
2016-Aug-16 19:32N 29°46' W 095°05'1 0.6
2016-Aug-16 18:30N 29°45' W 095°06'1 0.3
2016-Aug-16 16:33N 29°46' W 095°05'0 0.0
2016-Aug-16 15:21N 29°46' W 095°05'0 0.0
2016-Aug-16 14:33N 29°46' W 095°05'1 0.1
2016-Aug-16 01:23N 29°45' W 095°06'1 0.1
2016-Aug-15 20:32N 29°45' W 095°07'0 0.0
2016-Aug-15 19:32N 29°45' W 095°07'1 0.0
2016-Aug-14 15:16N 29°46' W 095°06'2 1.3
2016-Aug-14 13:24N 29°44' W 095°08'2 0.1
2016-Aug-13 19:32N 29°45' W 095°06'0 0.0
2016-Aug-13 04:33N 29°45' W 095°07'0 0.0
2016-Aug-13 03:33N 29°45' W 095°07'0 0.0
2016-Aug-13 02:34N 29°45' W 095°07'0 0.0
2016-Aug-13 01:33N 29°45' W 095°07'0 0.0
2016-Aug-13 00:33N 29°45' W 095°07'0 0.0
2016-Aug-12 23:33N 29°45' W 095°07'0 0.0
2016-Aug-12 22:33N 29°45' W 095°07'0 0.0
2016-Aug-12 21:33N 29°45' W 095°07'0 0.0
2016-Aug-12 20:33N 29°45' W 095°07'0 0.4
2016-Aug-12 19:33N 29°45' W 095°06'1 0.2
2016-Aug-12 14:06N 29°46' W 095°07'0 0.0
2016-Aug-12 10:10N 29°46' W 095°07'0 0.0
2016-Aug-12 09:33N 29°46' W 095°07'  
2016-Aug-08 19:33N 29°31' W 094°53'31 4.2
2016-Aug-08 12:13N 29°38' W 094°18'30 5.4
2016-Aug-08 06:33N 29°57' W 093°52'6 5.7
2016-Aug-08 05:33N 30°00' W 093°46'5 5.4
2016-Aug-08 04:33N 30°04' W 093°41'5 5.3
2016-Aug-08 03:33N 30°04' W 093°35'5 4.9
2016-Aug-08 02:33N 30°04' W 093°29'5 4.9
2016-Aug-08 01:33N 30°04' W 093°24'4 3.5
2016-Aug-08 00:33N 30°05' W 093°20'2 2.4
2016-Aug-07 23:33N 30°05' W 093°17'5 4.6
2016-Aug-07 22:33N 30°01' W 093°14'4 4.3
2016-Aug-07 21:33N 29°58' W 093°11'4 4.3
2016-Aug-07 20:33N 29°56' W 093°07'5 4.6
2016-Aug-07 19:34N 29°56' W 093°01'26 4.7
2016-Aug-07 14:09N 29°54' W 092°32'3 4.4
2016-Aug-07 13:24N 29°54' W 092°28'4 4.7
2016-Aug-07 12:33N 29°53' W 092°23'4 4.2
2016-Aug-07 11:33N 29°50' W 092°20'4 4.3
2016-Aug-07 10:33N 29°48' W 092°15'4 4.1
2016-Aug-07 09:33N 29°47' W 092°11'5 4.7
2016-Aug-07 08:33N 29°48' W 092°06'5 4.9
2016-Aug-07 07:34N 29°50' W 092°01'5 5.0
2016-Aug-07 06:33N 29°51' W 091°55'  

Dump ship's entire track history